createdAt,value
2023-04-20T00:00:55.448Z,98787.53
2023-04-20T00:04:00.212Z,98814.50
2023-04-20T00:07:30.387Z,98828.00
2023-04-20T00:10:35.183Z,98788.94
2023-04-20T00:13:39.849Z,98795.88
2023-04-20T00:16:43.995Z,98792.59
2023-04-20T00:19:48.311Z,98803.34
2023-04-20T00:22:52.734Z,98808.50
2023-04-20T00:25:57.372Z,98778.25
2023-04-20T00:29:02.134Z,98766.94
2023-04-20T00:32:07.462Z,98748.66
2023-04-20T00:35:12.017Z,98761.44
2023-04-20T00:38:16.007Z,98749.50
2023-04-20T00:41:20.527Z,98779.88
2023-04-20T00:44:25.068Z,98756.31
2023-04-20T00:47:29.776Z,98779.25
2023-04-20T00:50:35.447Z,98772.81
2023-04-20T00:53:40.159Z,98768.25
2023-04-20T00:56:44.901Z,98759.09
2023-04-20T00:59:49.828Z,98768.91
2023-04-20T01:02:54.678Z,98752.50
2023-04-20T01:05:59.535Z,98764.56
2023-04-20T01:09:04.285Z,98756.66
2023-04-20T01:12:12.568Z,98734.59
2023-04-20T01:15:16.729Z,98761.78
2023-04-20T01:18:20.871Z,98723.84
2023-04-20T01:21:25.073Z,98748.53
2023-04-20T01:24:29.652Z,98769.19
2023-04-20T01:27:36.422Z,98727.69
2023-04-20T01:30:41.362Z,98764.22
2023-04-20T01:33:45.714Z,98720.63
2023-04-20T01:36:49.978Z,98729.81
2023-04-20T01:39:54.834Z,98746.81
2023-04-20T01:42:59.716Z,98711.16
2023-04-20T01:46:04.868Z,98728.00
2023-04-20T01:49:09.707Z,98716.38
2023-04-20T01:52:13.629Z,98729.66
2023-04-20T01:55:20.026Z,98741.47
2023-04-20T01:58:24.833Z,98727.75
2023-04-20T02:01:29.353Z,98721.56
2023-04-20T02:04:33.991Z,98725.47
2023-04-20T02:07:38.237Z,98724.63
2023-04-20T02:10:43.987Z,98714.91
2023-04-20T02:13:48.685Z,98655.97
2023-04-20T02:16:54.141Z,98734.97
2023-04-20T02:19:58.194Z,98726.59
2023-04-20T02:23:02.375Z,98725.75
2023-04-20T02:26:29.380Z,98698.69
2023-04-20T02:29:34.036Z,98716.75
2023-04-20T02:32:38.931Z,98703.63
2023-04-20T02:35:43.772Z,98701.88
2023-04-20T02:38:48.516Z,98705.00
2023-04-20T02:41:53.089Z,98674.56
2023-04-20T02:44:58.525Z,98693.75
2023-04-20T02:48:03.169Z,98697.53
2023-04-20T02:51:08.779Z,98691.41
2023-04-20T02:54:18.427Z,98710.28
2023-04-20T02:57:22.274Z,98656.34
2023-04-20T03:00:27.030Z,98692.81
2023-04-20T03:03:40.762Z,98696.34
2023-04-20T03:06:48.323Z,98686.59
2023-04-20T03:09:57.680Z,98689.97
2023-04-20T03:13:20.807Z,98681.56
2023-04-20T03:16:33.633Z,98679.97
2023-04-20T03:19:38.598Z,98692.66
2023-04-20T03:22:43.306Z,98633.31
2023-04-20T03:25:47.750Z,98661.28
2023-04-20T03:29:15.129Z,98686.38
2023-04-20T03:32:19.475Z,98682.50
2023-04-20T03:35:23.590Z,98649.81
2023-04-20T03:38:28.046Z,98637.06
2023-04-20T03:41:33.112Z,98680.31
2023-04-20T03:44:38.702Z,98691.84
2023-04-20T03:47:43.533Z,98699.09
2023-04-20T03:50:47.717Z,98634.50
2023-04-20T03:53:52.400Z,98668.91
2023-04-20T03:56:57.393Z,98723.34
2023-04-20T04:00:05.463Z,98707.91
2023-04-20T04:03:22.931Z,98700.31
2023-04-20T04:06:28.285Z,98714.00
2023-04-20T04:09:32.479Z,98713.84
2023-04-20T04:12:36.387Z,98711.31
2023-04-20T04:15:41.092Z,98721.50
2023-04-20T04:18:49.585Z,98730.88
2023-04-20T04:21:54.629Z,98731.03
2023-04-20T04:24:58.965Z,98741.53
2023-04-20T04:28:03.390Z,98754.97
2023-04-20T04:31:10.581Z,98751.81
2023-04-20T04:34:16.278Z,98755.97
2023-04-20T04:37:24.272Z,98748.53
2023-04-20T04:40:33.663Z,98750.22
2023-04-20T04:43:42.233Z,98741.78
2023-04-20T04:46:56.937Z,98770.91
2023-04-20T04:50:06.804Z,98740.53
2023-04-20T04:53:11.552Z,98755.03
2023-04-20T04:56:15.835Z,98781.84
2023-04-20T04:59:20.295Z,98770.03
2023-04-20T05:02:24.914Z,98787.75
2023-04-20T05:05:31.808Z,98799.66
2023-04-20T05:08:36.393Z,98804.97
2023-04-20T05:11:40.430Z,98811.28
2023-04-20T05:14:44.730Z,98805.94
2023-04-20T05:17:50.748Z,98791.31
2023-04-20T05:20:56.007Z,98781.56
2023-04-20T05:24:00.767Z,98820.41
2023-04-20T05:27:05.637Z,98809.66
2023-04-20T05:30:20.315Z,98821.22
2023-04-20T05:33:26.807Z,98797.47
2023-04-20T05:36:31.803Z,98829.19
2023-04-20T05:39:36.612Z,98825.19
2023-04-20T05:42:41.719Z,98831.69
2023-04-20T05:45:47.254Z,98839.28
2023-04-20T05:48:52.254Z,98847.47
2023-04-20T05:51:56.570Z,98844.78
2023-04-20T05:55:00.966Z,98856.03
2023-04-20T05:58:08.250Z,98860.00
2023-04-20T06:01:12.870Z,98867.63
2023-04-20T06:04:17.224Z,98876.16
2023-04-20T06:07:21.927Z,98883.91
2023-04-20T06:10:26.553Z,98909.84
2023-04-20T06:13:30.571Z,98905.56
2023-04-20T06:16:34.613Z,98918.31
2023-04-20T06:19:39.064Z,98921.97
2023-04-20T06:22:47.668Z,98923.91
2023-04-20T06:25:52.210Z,98907.84
2023-04-20T06:28:56.325Z,98889.50
2023-04-20T06:32:00.263Z,98906.81
2023-04-20T06:35:05.121Z,98959.44
2023-04-20T06:38:09.691Z,98973.78
2023-04-20T06:41:13.684Z,98967.06
2023-04-20T06:44:18.112Z,98981.69
2023-04-20T06:47:22.210Z,98981.41
2023-04-20T06:50:26.331Z,98966.84
2023-04-20T06:53:30.810Z,98963.56
2023-04-20T06:56:35.714Z,98975.50
2023-04-20T06:59:40.348Z,98967.16
2023-04-20T07:02:50.284Z,98950.13
2023-04-20T07:05:55.091Z,98965.25
2023-04-20T07:08:59.579Z,98960.75
2023-04-20T07:12:04.274Z,98965.44
2023-04-20T07:15:10.162Z,98958.03
2023-04-20T07:18:14.875Z,98955.78
2023-04-20T07:21:19.480Z,98967.56
2023-04-20T07:24:24.020Z,98943.31
2023-04-20T07:27:30.447Z,98951.97
2023-04-20T07:30:34.946Z,98934.03
2023-04-20T07:33:39.990Z,98950.28
2023-04-20T07:36:44.499Z,98955.59
2023-04-20T07:39:48.416Z,98956.16
2023-04-20T07:42:52.379Z,98942.41
2023-04-20T07:45:57.402Z,98940.16
2023-04-20T07:49:01.503Z,98940.84
2023-04-20T07:52:15.612Z,98961.47
2023-04-20T07:55:20.934Z,98964.81
2023-04-20T07:58:25.484Z,98972.59
2023-04-20T08:01:29.978Z,99006.00
2023-04-20T08:04:37.526Z,98979.78
2023-04-20T08:07:42.334Z,99009.91
2023-04-20T08:10:55.035Z,99024.59
2023-04-20T08:14:44.012Z,99010.53
2023-04-20T08:17:48.693Z,99020.84
2023-04-20T08:20:54.220Z,99047.63
2023-04-20T08:23:58.860Z,99064.56
2023-04-20T08:27:03.380Z,99060.22
2023-04-20T08:30:08.798Z,99082.88
2023-04-20T08:33:14.433Z,99082.78
2023-04-20T08:36:19.745Z,99101.84
2023-04-20T08:39:24.815Z,99072.81
2023-04-20T08:42:29.668Z,99085.78
2023-04-20T08:45:33.816Z,99088.91
2023-04-20T08:48:39.360Z,99085.44
2023-04-20T08:51:45.297Z,99082.69
2023-04-20T08:54:56.040Z,99074.84
2023-04-20T08:58:01.643Z,99058.31
2023-04-20T09:01:06.432Z,99080.22
2023-04-20T09:04:28.399Z,99093.72
2023-04-20T09:07:33.888Z,99075.06
2023-04-20T09:10:45.970Z,99076.91
2023-04-20T09:14:07.500Z,99082.47
2023-04-20T09:17:15.136Z,99078.22
2023-04-20T09:20:32.914Z,99087.53
2023-04-20T09:23:37.347Z,99072.88
2023-04-20T09:26:41.940Z,99089.53
2023-04-20T09:29:58.392Z,99097.75
2023-04-20T09:33:04.338Z,99068.41
2023-04-20T09:36:09.231Z,99090.94
2023-04-20T09:39:19.941Z,99094.53
2023-04-20T09:42:28.838Z,99052.28
2023-04-20T09:45:33.597Z,99103.16
2023-04-20T09:48:37.743Z,99118.88
2023-04-20T09:51:47.819Z,99118.75
2023-04-20T09:54:54.015Z,99124.78
2023-04-20T09:57:59.740Z,99140.25
2023-04-20T10:01:04.687Z,99119.81
2023-04-20T10:04:11.658Z,99153.88
2023-04-20T10:07:25.430Z,99178.06
2023-04-20T10:10:30.064Z,99177.28
2023-04-20T10:13:35.413Z,99178.28
2023-04-20T10:16:39.402Z,99187.34
2023-04-20T10:19:47.769Z,99157.09
2023-04-20T10:23:16.672Z,99192.09
2023-04-20T10:26:29.384Z,99183.94
2023-04-20T10:29:42.213Z,99212.69
2023-04-20T10:32:48.918Z,99216.13
2023-04-20T10:35:59.180Z,99227.34
2023-04-20T10:39:21.672Z,99237.91
2023-04-20T10:42:27.645Z,99231.97
2023-04-20T10:45:37.476Z,99238.00
2023-04-20T10:48:51.624Z,99243.44
2023-04-20T10:51:56.866Z,99249.66
2023-04-20T10:55:01.669Z,99259.28
2023-04-20T10:58:06.848Z,99266.63
2023-04-20T11:01:11.338Z,99211.47
2023-04-20T11:04:18.439Z,99267.63
2023-04-20T11:07:25.080Z,99267.75
2023-04-20T11:10:43.104Z,99269.78
2023-04-20T11:13:47.912Z,99277.88
2023-04-20T11:16:56.358Z,99280.25
2023-04-20T11:20:26.921Z,99289.56
2023-04-20T11:23:39.429Z,99299.69
2023-04-20T11:26:44.521Z,99283.28
2023-04-20T11:29:59.092Z,99249.22
2023-04-20T11:33:04.027Z,99302.84
2023-04-20T11:36:09.148Z,99317.91
2023-04-20T11:39:16.244Z,99321.94
2023-04-20T11:42:22.430Z,99337.34
2023-04-20T11:45:28.514Z,99337.44
2023-04-20T11:48:33.451Z,99340.75
2023-04-20T11:51:38.573Z,99339.38
2023-04-20T11:54:42.889Z,99324.19
2023-04-20T11:57:47.434Z,99345.66
2023-04-20T12:00:51.966Z,99341.63
2023-04-20T12:03:56.837Z,99349.72
2023-04-20T12:07:04.980Z,99351.44
2023-04-20T12:10:10.156Z,99343.72
2023-04-20T12:13:14.538Z,99319.56
2023-04-20T12:16:18.927Z,99355.03
2023-04-20T12:19:23.204Z,99342.50
2023-04-20T12:22:28.005Z,99360.34
2023-04-20T12:25:34.071Z,99359.75
2023-04-20T12:28:38.441Z,99367.09
2023-04-20T12:31:43.283Z,99371.38
2023-04-20T12:34:49.390Z,99379.38
2023-04-20T12:37:53.754Z,99372.78
2023-04-20T12:40:58.087Z,99381.59
2023-04-20T12:44:05.149Z,99387.09
2023-04-20T12:47:11.656Z,99389.13
2023-04-20T12:50:16.506Z,99399.75
2023-04-20T12:53:20.742Z,99401.06
2023-04-20T12:56:24.782Z,99399.69
2023-04-20T12:59:29.672Z,99367.47
2023-04-20T13:02:35.034Z,99390.03
2023-04-20T13:05:39.876Z,99391.34
2023-04-20T13:08:44.393Z,99394.72
2023-04-20T13:11:48.367Z,99404.38
2023-04-20T13:14:53.315Z,99374.06
2023-04-20T13:17:57.740Z,99394.50
2023-04-20T13:21:03.860Z,99394.00
2023-04-20T13:24:08.629Z,99398.59
2023-04-20T13:27:12.777Z,99392.81
2023-04-20T13:30:16.844Z,99402.41
2023-04-20T13:33:21.332Z,99394.56
2023-04-20T13:36:26.322Z,99398.94
2023-04-20T13:39:31.057Z,99399.16
2023-04-20T13:42:35.701Z,99414.09
2023-04-20T13:45:40.286Z,99421.16
2023-04-20T13:48:48.108Z,99418.44
2023-04-20T13:51:52.453Z,99425.28
2023-04-20T13:54:57.056Z,99423.41
2023-04-20T13:58:01.904Z,99428.06
2023-04-20T14:01:14.333Z,99424.13
2023-04-20T14:04:19.237Z,99449.72
2023-04-20T14:07:24.148Z,99430.28
2023-04-20T14:10:29.624Z,99454.91
2023-04-20T14:13:34.190Z,99454.19
2023-04-20T14:16:46.073Z,99458.47
2023-04-20T14:19:50.362Z,99466.47
2023-04-20T14:22:54.936Z,99448.97
2023-04-20T14:25:59.447Z,99468.19
2023-04-20T14:29:03.972Z,99475.94
2023-04-20T14:32:08.460Z,99475.16
2023-04-20T14:35:12.845Z,99466.56
2023-04-20T14:38:17.182Z,99486.28
2023-04-20T14:41:21.695Z,99505.06
2023-04-20T14:44:26.368Z,99491.25
2023-04-20T14:47:33.373Z,99506.66
2023-04-20T14:50:37.882Z,99506.06
2023-04-20T14:53:42.264Z,99510.50
2023-04-20T14:56:46.855Z,99513.38
2023-04-20T14:59:51.470Z,99503.53
2023-04-20T15:03:00.621Z,99520.25
2023-04-20T15:06:05.543Z,99511.50
2023-04-20T15:09:09.617Z,99516.09
2023-04-20T15:12:14.111Z,99514.44
2023-04-20T15:15:18.907Z,99525.72
2023-04-20T15:18:23.356Z,99529.88
2023-04-20T15:21:27.780Z,99528.06
2023-04-20T15:24:33.628Z,99533.81
2023-04-20T15:27:37.426Z,99536.88
2023-04-20T15:30:41.884Z,99543.50
2023-04-20T15:33:48.742Z,99516.03
2023-04-20T15:36:52.768Z,99538.81
2023-04-20T15:39:57.018Z,99561.56
2023-04-20T15:43:00.953Z,99559.75
2023-04-20T15:46:05.098Z,99551.94
2023-04-20T15:49:09.150Z,99543.09
2023-04-20T15:52:13.113Z,99573.75
2023-04-20T15:55:17.916Z,99540.81
2023-04-20T15:58:23.981Z,99576.91
2023-04-20T16:01:28.598Z,99563.97
2023-04-20T16:04:33.221Z,99569.66
2023-04-20T16:07:37.614Z,99575.00
2023-04-20T16:10:41.996Z,99567.56
2023-04-20T16:13:46.377Z,99572.66
2023-04-20T16:16:50.828Z,99582.19
2023-04-20T16:19:54.887Z,99579.66
2023-04-20T16:22:58.795Z,99590.88
2023-04-20T16:26:02.781Z,99594.31
2023-04-20T16:29:07.757Z,99576.25
2023-04-20T16:32:12.675Z,99595.38
2023-04-20T16:35:17.161Z,99607.06
2023-04-20T16:38:21.524Z,99599.81
2023-04-20T16:41:26.526Z,99594.88
2023-04-20T16:44:30.903Z,99593.84
2023-04-20T16:47:35.648Z,99600.66
2023-04-20T16:50:42.113Z,99592.25
2023-04-20T16:53:47.232Z,99595.63
2023-04-20T16:56:52.129Z,99571.09
2023-04-20T16:59:56.830Z,99588.38
2023-04-20T17:03:04.347Z,99599.09
2023-04-20T17:06:10.544Z,99581.19
2023-04-20T17:09:15.370Z,99576.00
2023-04-20T17:12:19.391Z,99567.19
2023-04-20T17:15:24.495Z,99605.38
2023-04-20T17:18:28.702Z,99533.25
2023-04-20T17:21:33.163Z,99586.88
2023-04-20T17:24:37.287Z,99579.66
2023-04-20T17:27:41.693Z,99585.22
2023-04-20T17:30:46.577Z,99594.03
2023-04-20T17:33:50.800Z,99581.84
2023-04-20T17:36:55.007Z,99607.28
2023-04-20T17:39:59.744Z,99606.53
2023-04-20T17:43:04.439Z,99615.06
2023-04-20T17:46:09.268Z,99607.59
2023-04-20T17:49:14.117Z,99603.78
2023-04-20T17:52:20.572Z,99596.97
2023-04-20T17:55:25.207Z,99595.69
2023-04-20T17:58:29.239Z,99622.41
2023-04-20T18:01:36.646Z,99641.53
2023-04-20T18:04:41.271Z,99645.28
2023-04-20T18:07:46.854Z,99623.41
2023-04-20T18:10:51.274Z,99632.34
2023-04-20T18:13:57.988Z,99637.00
2023-04-20T18:17:02.442Z,99618.00
2023-04-20T18:20:09.344Z,99645.94
2023-04-20T18:23:14.592Z,99644.22
2023-04-20T18:26:18.711Z,99647.13
2023-04-20T18:29:23.019Z,99652.28
2023-04-20T18:32:31.812Z,99636.53
2023-04-20T18:35:36.562Z,99651.28
2023-04-20T18:38:41.629Z,99647.56
2023-04-20T18:41:46.168Z,99654.56
2023-04-20T18:44:53.773Z,99592.19
2023-04-20T18:48:01.292Z,99666.19
2023-04-20T18:51:06.204Z,99671.72
2023-04-20T18:54:10.984Z,99684.16
2023-04-20T18:57:14.879Z,99680.56
2023-04-20T19:00:23.188Z,99685.91
2023-04-20T19:03:27.902Z,99674.59
2023-04-20T19:06:32.113Z,99666.94
2023-04-20T19:09:39.853Z,99700.81
2023-04-20T19:12:44.667Z,99681.97
2023-04-20T19:15:48.836Z,99701.19
2023-04-20T19:18:52.795Z,99641.34
2023-04-20T19:22:15.934Z,99680.38
2023-04-20T19:25:21.869Z,99692.69
2023-04-20T19:28:26.455Z,99661.44
2023-04-20T19:31:37.422Z,99671.84
2023-04-20T19:34:42.393Z,99688.47
2023-04-20T19:37:47.110Z,99598.03
2023-04-20T19:40:52.793Z,99701.47
2023-04-20T19:43:56.953Z,99711.41
2023-04-20T19:47:01.470Z,99698.25
2023-04-20T19:50:06.574Z,99683.50
2023-04-20T19:53:11.292Z,99713.19
2023-04-20T19:56:16.090Z,99714.00
2023-04-20T19:59:21.044Z,99734.88
2023-04-20T20:02:26.216Z,99711.44
2023-04-20T20:05:30.981Z,99715.66
2023-04-20T20:08:35.890Z,99733.22
2023-04-20T20:11:40.381Z,99735.03
2023-04-20T20:14:44.855Z,99734.16
2023-04-20T20:17:48.867Z,99744.75
2023-04-20T20:20:53.251Z,99737.75
2023-04-20T20:23:57.467Z,99715.78
2023-04-20T20:27:01.388Z,99742.94
2023-04-20T20:30:05.708Z,99744.63
2023-04-20T20:33:10.347Z,99756.03
2023-04-20T20:36:15.376Z,99756.97
2023-04-20T20:39:19.505Z,99738.72
2023-04-20T20:42:24.360Z,99732.66
2023-04-20T20:45:28.719Z,99744.00
2023-04-20T20:48:32.897Z,99751.91
2023-04-20T20:51:37.202Z,99752.81
2023-04-20T20:54:43.307Z,99736.13
2023-04-20T20:57:47.564Z,99756.94
2023-04-20T21:00:52.141Z,99750.63
2023-04-20T21:03:56.870Z,99762.13
2023-04-20T21:07:01.337Z,99681.84
2023-04-20T21:10:20.238Z,99743.53
2023-04-20T21:18:04.163Z,99739.69
2023-04-20T21:21:17.282Z,99753.00
2023-04-20T21:24:22.054Z,99699.13
2023-04-20T21:27:26.437Z,99742.38
2023-04-20T21:30:31.087Z,99755.72
2023-04-20T21:33:36.777Z,99772.00
2023-04-20T21:36:41.526Z,99786.44
2023-04-20T21:39:45.586Z,99770.31
2023-04-20T21:42:49.950Z,99771.13
2023-04-20T21:45:54.582Z,99782.78
2023-04-20T21:48:59.130Z,99771.78
2023-04-20T21:52:03.556Z,99782.69
2023-04-20T21:55:08.526Z,99763.13
2023-04-20T21:58:13.100Z,99801.59
2023-04-20T22:01:17.831Z,99769.38
2023-04-20T22:04:23.033Z,99786.06
2023-04-20T22:07:28.323Z,99788.41
2023-04-20T22:10:33.098Z,99760.91
2023-04-20T22:13:58.131Z,99802.47
2023-04-20T22:17:02.604Z,99804.47
2023-04-20T22:20:09.226Z,99801.75
2023-04-20T22:23:13.310Z,99803.31
2023-04-20T22:26:18.119Z,99802.75
2023-04-20T22:29:23.646Z,99805.16
2023-04-20T22:32:28.442Z,99802.19
2023-04-20T22:35:33.099Z,99802.47
2023-04-20T22:38:37.999Z,99802.38
2023-04-20T22:41:43.041Z,99805.81
2023-04-20T22:44:47.189Z,99809.13
2023-04-20T22:47:51.748Z,99780.38
2023-04-20T22:50:56.203Z,99791.53
2023-04-20T22:54:01.734Z,99793.63
2023-04-20T22:57:05.400Z,99793.41
2023-04-20T23:00:14.650Z,99778.66
2023-04-20T23:03:18.789Z,99786.03
2023-04-20T23:06:25.545Z,99778.50
2023-04-20T23:09:29.552Z,99783.81
2023-04-20T23:12:34.234Z,99773.06
2023-04-20T23:15:38.604Z,99776.22
2023-04-20T23:18:42.799Z,99782.25
2023-04-20T23:21:46.772Z,99777.94
2023-04-20T23:24:51.458Z,99785.97
2023-04-20T23:27:55.989Z,99770.34
2023-04-20T23:31:00.688Z,99772.81
2023-04-20T23:34:04.961Z,99786.03
2023-04-20T23:37:09.616Z,99793.03
2023-04-20T23:40:14.121Z,99792.69
2023-04-20T23:43:18.702Z,99793.06
2023-04-20T23:46:23.323Z,99781.56
2023-04-20T23:49:28.155Z,99787.78
2023-04-20T23:52:32.952Z,99784.25
2023-04-20T23:55:37.756Z,99779.19
2023-04-20T23:58:41.819Z,99778.50
